createdAt,value
2023-03-15T00:04:48.871Z,4.70
2023-03-15T00:09:51.161Z,4.00
2023-03-15T00:14:53.036Z,5.70
2023-03-15T00:19:55.321Z,4.20
2023-03-15T00:24:57.067Z,3.90
2023-03-15T00:29:59.381Z,5.20
2023-03-15T00:35:01.388Z,6.20
2023-03-15T00:40:04.420Z,3.10
2023-03-15T00:45:07.574Z,2.90
2023-03-15T00:55:13.580Z,2.70
2023-03-15T01:00:24.104Z,2.70
2023-03-15T01:05:26.342Z,2.80
2023-03-15T01:10:28.427Z,4.00
2023-03-15T01:15:30.427Z,3.90
2023-03-15T01:20:33.004Z,3.50
2023-03-15T01:25:34.772Z,1.90
2023-03-15T01:30:36.750Z,2.00
2023-03-15T01:35:38.662Z,2.10
2023-03-15T01:40:45.320Z,1.90
2023-03-15T01:45:58.970Z,1.60
2023-03-15T01:51:11.603Z,1.50
2023-03-15T01:56:14.804Z,1.30
2023-03-15T02:01:16.952Z,1.90
2023-03-15T02:06:20.551Z,2.10
2023-03-15T02:11:25.726Z,1.60
2023-03-15T02:16:29.330Z,1.90
2023-03-15T02:21:56.757Z,1.90
2023-03-15T02:26:58.575Z,2.20
2023-03-15T02:32:04.163Z,2.10
2023-03-15T02:37:06.285Z,2.00
2023-03-15T02:42:08.566Z,2.50
2023-03-15T02:47:18.634Z,2.60
2023-03-15T02:52:21.855Z,2.50
2023-03-15T02:57:23.626Z,3.30
2023-03-15T03:02:25.639Z,2.60
2023-03-15T03:07:27.582Z,2.40
2023-03-15T03:12:29.455Z,2.10
2023-03-15T03:17:31.230Z,2.10
2023-03-15T03:22:34.854Z,2.60
2023-03-15T03:27:36.826Z,2.50
2023-03-15T03:32:40.771Z,2.60
2023-03-15T03:37:42.728Z,2.40
2023-03-15T03:42:44.662Z,3.10
2023-03-15T03:47:47.601Z,2.70
2023-03-15T03:52:49.685Z,3.30
2023-03-15T03:57:54.732Z,3.10
2023-03-15T04:02:57.027Z,3.10
2023-03-15T04:07:58.895Z,3.60
2023-03-15T04:13:01.388Z,3.30
2023-03-15T04:18:05.428Z,3.90
2023-03-15T04:23:07.699Z,3.40
2023-03-15T04:28:12.524Z,3.30
2023-03-15T04:33:14.434Z,3.60
2023-03-15T04:38:16.307Z,3.30
2023-03-15T04:43:18.086Z,2.80
2023-03-15T04:48:19.867Z,2.80
2023-03-15T04:53:22.041Z,2.80
2023-03-15T04:58:23.923Z,2.50
2023-03-15T05:03:25.696Z,3.20
2023-03-15T05:08:27.418Z,2.80
2023-03-15T05:13:29.660Z,3.10
2023-03-15T05:18:31.533Z,2.70
2023-03-15T05:23:33.717Z,3.00
2023-03-15T05:28:35.484Z,3.00
2023-03-15T05:33:37.161Z,2.20
2023-03-15T05:38:39.031Z,2.80
2023-03-15T05:43:40.706Z,2.80
2023-03-15T05:48:42.378Z,2.40
2023-03-15T05:53:46.010Z,2.80
2023-03-15T05:58:48.280Z,3.10
2023-03-15T06:03:50.130Z,2.90
2023-03-15T06:08:51.926Z,3.50
2023-03-15T06:13:53.745Z,3.50
2023-03-15T06:18:55.477Z,2.30
2023-03-15T06:23:57.670Z,2.40
2023-03-15T06:28:59.532Z,2.60
2023-03-15T06:34:02.751Z,2.30
2023-03-15T06:39:05.305Z,2.50
2023-03-15T06:44:08.854Z,2.50
2023-03-15T06:49:10.843Z,2.50
2023-03-15T06:54:13.324Z,3.00
2023-03-15T06:59:15.421Z,3.10
2023-03-15T07:04:17.598Z,2.40
2023-03-15T07:09:20.082Z,2.40
2023-03-15T07:14:22.173Z,2.40
2023-03-15T07:19:23.836Z,2.80
2023-03-15T07:24:26.945Z,2.60
2023-03-15T07:34:30.820Z,2.50
2023-03-15T07:39:33.800Z,3.30
2023-03-15T07:44:35.881Z,2.40
2023-03-15T07:49:38.176Z,2.40
2023-03-15T07:54:40.454Z,2.60
2023-03-15T07:59:42.434Z,2.40
2023-03-15T08:04:44.512Z,2.40
2023-03-15T08:09:46.293Z,2.40
2023-03-15T08:14:48.065Z,2.40
2023-03-15T08:19:49.835Z,2.30
2023-03-15T08:24:52.807Z,2.40
2023-03-15T08:29:54.850Z,2.50
2023-03-15T08:34:56.649Z,3.10
2023-03-15T08:40:05.307Z,2.50
2023-03-15T08:45:09.767Z,2.00
2023-03-15T08:50:16.554Z,2.20
2023-03-15T08:55:19.252Z,2.60
2023-03-15T09:00:22.244Z,2.30
2023-03-15T09:05:26.080Z,2.50
2023-03-15T09:10:28.054Z,2.00
2023-03-15T09:15:30.140Z,2.10
2023-03-15T09:20:31.933Z,2.20
2023-03-15T09:25:33.790Z,2.00
2023-03-15T09:30:37.875Z,2.50
2023-03-15T09:35:41.347Z,2.00
2023-03-15T09:40:45.661Z,2.00
2023-03-15T09:46:11.562Z,2.50
2023-03-15T09:51:24.651Z,2.60
2023-03-15T09:56:55.412Z,2.00
2023-03-15T10:02:01.616Z,2.50
2023-03-15T10:07:05.919Z,2.90
2023-03-15T10:12:27.150Z,2.60
2023-03-15T10:17:59.856Z,2.20
2023-03-15T10:23:09.917Z,2.60
2023-03-15T10:28:25.534Z,2.50
2023-03-15T10:33:37.733Z,6.10
2023-03-15T10:38:41.344Z,2.90
2023-03-15T10:43:58.072Z,2.10
2023-03-15T10:49:11.623Z,2.00
2023-03-15T10:54:18.928Z,2.10
2023-03-15T10:59:24.383Z,2.20
2023-03-15T11:04:27.390Z,2.10
2023-03-15T11:09:44.317Z,3.20
2023-03-15T11:14:48.445Z,2.70
2023-03-15T11:19:59.423Z,2.40
2023-03-15T11:25:01.648Z,2.30
2023-03-15T11:30:05.615Z,2.30
2023-03-15T11:35:15.110Z,2.80
2023-03-15T11:40:53.432Z,3.60
2023-03-15T11:46:13.544Z,2.10
2023-03-15T11:51:16.955Z,2.50
2023-03-15T12:02:21.051Z,2.50
2023-03-15T12:07:28.331Z,2.80
2023-03-15T12:12:30.411Z,2.70
2023-03-15T12:17:49.591Z,3.00
2023-03-15T12:22:53.825Z,3.50
2023-03-15T12:27:58.357Z,5.00
2023-03-15T12:33:02.975Z,4.60
2023-03-15T12:38:16.853Z,2.50
2023-03-15T12:43:44.537Z,4.50
2023-03-15T12:49:11.914Z,3.00
2023-03-15T12:54:16.856Z,3.30
2023-03-15T12:59:54.696Z,2.30
2023-03-15T13:05:28.934Z,2.30
2023-03-15T13:11:05.196Z,2.10
2023-03-15T13:16:19.417Z,3.30
2023-03-15T13:21:31.988Z,3.50
2023-03-15T13:26:50.565Z,1.90
2023-03-15T13:32:12.204Z,2.00
2023-03-15T13:37:25.057Z,5.90
2023-03-15T13:42:27.425Z,2.60
2023-03-15T13:47:29.399Z,4.40
2023-03-15T13:52:31.688Z,14.10
2023-03-15T13:57:35.199Z,20.60
2023-03-15T14:02:42.953Z,6.60
2023-03-15T14:07:49.311Z,3.90
2023-03-15T14:12:52.492Z,3.10
2023-03-15T14:23:04.350Z,2.00
2023-03-15T14:28:06.494Z,3.20
2023-03-15T14:33:32.281Z,4.00
2023-03-15T14:38:39.502Z,5.10
2023-03-15T14:43:41.349Z,16.20
2023-03-15T14:48:44.150Z,5.50
2023-03-15T14:53:48.590Z,5.20
2023-03-15T14:58:53.533Z,13.80
2023-03-15T15:04:02.890Z,35.30
2023-03-15T15:09:06.440Z,19.70
2023-03-15T15:14:15.187Z,5.00
2023-03-15T15:19:17.117Z,26.10
2023-03-15T15:24:22.780Z,13.70
2023-03-15T15:29:24.966Z,5.90
2023-03-15T15:34:26.741Z,7.80
2023-03-15T15:39:29.240Z,5.10
2023-03-15T15:44:31.009Z,20.90
2023-03-15T15:49:33.185Z,12.70
2023-03-15T15:54:35.951Z,7.20
2023-03-15T15:59:38.028Z,5.70
2023-03-15T16:04:42.238Z,34.50
2023-03-15T16:09:48.746Z,49.30
2023-03-15T16:14:51.989Z,39.70
2023-03-15T16:19:55.304Z,30.60
2023-03-15T16:25:01.496Z,47.90
2023-03-15T16:30:09.946Z,21.10
2023-03-15T16:35:16.283Z,13.60
2023-03-15T16:40:27.378Z,26.80
2023-03-15T16:45:29.884Z,35.90
2023-03-15T16:50:32.993Z,62.10
2023-03-15T16:55:36.170Z,43.30
2023-03-15T17:00:44.601Z,91.10
2023-03-15T17:05:49.262Z,98.60
2023-03-15T17:10:51.852Z,113.70
2023-03-15T17:15:54.064Z,73.00
2023-03-15T17:20:56.328Z,77.60
2023-03-15T17:25:58.412Z,80.90
2023-03-15T17:31:20.258Z,71.40
2023-03-15T17:36:25.412Z,95.20
2023-03-15T17:41:36.809Z,88.10
2023-03-15T17:46:38.760Z,93.20
2023-03-15T17:51:41.102Z,92.30
2023-03-15T17:56:43.484Z,160.00
2023-03-15T18:01:48.311Z,128.50
2023-03-15T18:06:50.290Z,121.10
2023-03-15T18:11:52.278Z,121.00
2023-03-15T18:16:54.123Z,126.60
2023-03-15T18:21:56.437Z,108.30
2023-03-15T18:27:00.252Z,117.10
2023-03-15T18:32:03.088Z,121.90
2023-03-15T18:37:05.440Z,113.90
2023-03-15T18:42:08.746Z,109.10
2023-03-15T18:52:16.162Z,100.60
2023-03-15T18:57:20.608Z,87.20
2023-03-15T19:02:23.046Z,86.50
2023-03-15T19:07:27.455Z,78.80
2023-03-15T19:12:29.536Z,78.20
2023-03-15T19:17:31.305Z,69.50
2023-03-15T19:22:33.901Z,64.30
2023-03-15T19:27:37.742Z,69.60
2023-03-15T19:32:42.641Z,55.00
2023-03-15T19:37:46.188Z,60.40
2023-03-15T19:42:49.301Z,41.00
2023-03-15T19:52:53.150Z,45.50
2023-03-15T19:57:55.436Z,65.30
2023-03-15T20:02:58.032Z,79.10
2023-03-15T20:08:01.761Z,88.50
2023-03-15T20:13:05.267Z,116.30
2023-03-15T20:18:10.315Z,142.20
2023-03-15T20:23:13.035Z,113.20
2023-03-15T20:28:18.297Z,89.30
2023-03-15T20:33:20.666Z,103.90
2023-03-15T20:38:23.058Z,159.50
2023-03-15T20:43:26.592Z,164.20
2023-03-15T20:48:30.822Z,171.60
2023-03-15T20:53:35.286Z,139.30
2023-03-15T20:58:37.105Z,112.20
2023-03-15T21:03:39.318Z,95.50
2023-03-15T21:08:43.422Z,82.40
2023-03-15T21:13:46.434Z,83.10
2023-03-15T21:18:51.380Z,81.20
2023-03-15T21:23:53.983Z,65.70
2023-03-15T21:28:56.352Z,34.50
2023-03-15T21:33:58.227Z,31.20
2023-03-15T21:39:01.134Z,33.90
2023-03-15T21:44:05.351Z,40.10
2023-03-15T21:49:08.251Z,50.10
2023-03-15T21:59:14.360Z,70.80
2023-03-15T22:04:16.923Z,69.80
2023-03-15T22:09:20.444Z,59.50
2023-03-15T22:14:23.681Z,46.30
2023-03-15T22:19:25.765Z,41.90
2023-03-15T22:24:27.755Z,38.80
2023-03-15T22:29:29.622Z,39.20
2023-03-15T22:34:33.712Z,32.90
2023-03-15T22:39:35.936Z,31.60
2023-03-15T22:44:37.622Z,23.80
2023-03-15T22:49:39.531Z,20.70
2023-03-15T22:54:43.105Z,30.70
2023-03-15T22:59:44.781Z,29.50
2023-03-15T23:04:46.581Z,35.60
2023-03-15T23:09:48.431Z,37.70
2023-03-15T23:14:51.436Z,46.70
2023-03-15T23:19:53.312Z,40.90
2023-03-15T23:24:57.546Z,34.30
2023-03-15T23:29:59.529Z,26.40
2023-03-15T23:35:06.877Z,23.30
2023-03-15T23:40:14.968Z,27.60
2023-03-15T23:45:16.834Z,25.70
2023-03-15T23:50:19.121Z,29.30
2023-03-15T23:55:22.123Z,27.80
